Terminal Aerodrome Forecast
Issued by NWS

Home | Current Version | Previous Version | Graphics & Text | Print | Product List | Glossary On
Versions: 1 2 3 4 5 6 7 8 9 10 11 12 13 14 15 16 17 18 19 20 21 22
093
FTUS43 KBIS 211609 AAA
TAFJMS
TAF AMD
KJMS 211609Z 2116/2212 12005KT 1/2SM FG OVC003
      TEMPO 2116/2118 1/4SM FG
     FM212000 11004KT 1 1/2SM BR VCSH OVC003
     FM220000 VRB03KT 2SM BR OVC003=

USA.gov is the U.S. government's official web portal to all federal, state and local government web resources and services.